Time;durP1;ratioP1;P1;durP2;ratioP2;P2;SDS_P1;SDS_P2;PMS_P1;PMS_P2;Temp;Humidity;BMP_temperature;BMP_pressure;BME280_temperature;BME280_humidity;BME280_pressure;Samples;Min_cycle;Max_cycle;Signal;HPM_P1;HPM_P2
2022/01/10 00:00:08;;;;;;;12.05;4.82;;;;;;;0.64;100.00;98189.97;5016099;28;20014;-74
2022/01/10 00:02:34;;;;;;;11.63;5.55;;;;;;;0.60;100.00;98186.81;5011958;28;20033;-73
2022/01/10 00:04:59;;;;;;;8.93;5.35;;;;;;;0.56;100.00;98185.44;5003190;28;20034;-74
2022/01/10 00:07:24;;;;;;;13.05;5.35;;;;;;;0.48;100.00;98168.56;5012808;28;20079;-74
2022/01/10 00:09:49;;;;;;;9.77;5.03;;;;;;;0.56;100.00;98192.59;5006570;28;20532;-74
2022/01/10 00:12:15;;;;;;;13.18;5.28;;;;;;;0.61;100.00;98196.44;4995384;28;20101;-73
2022/01/10 00:14:40;;;;;;;13.40;5.93;;;;;;;0.67;100.00;98199.47;4992466;28;20118;-73
2022/01/10 00:17:05;;;;;;;12.88;5.53;;;;;;;0.59;100.00;98182.44;4993974;28;20026;-74
2022/01/10 00:19:31;;;;;;;12.38;5.80;;;;;;;0.78;100.00;98207.19;4990728;28;20501;-73
2022/01/10 00:21:56;;;;;;;12.30;6.18;;;;;;;0.82;100.00;98209.41;4988495;28;20198;-74
2022/01/10 00:24:22;;;;;;;9.82;5.38;;;;;;;0.80;100.00;98210.56;4991636;28;20041;-73
2022/01/10 00:26:47;;;;;;;8.75;5.22;;;;;;;0.65;100.00;98197.81;4993874;28;20037;-74
2022/01/10 00:29:13;;;;;;;9.35;5.63;;;;;;;0.79;100.00;98219.53;4995669;28;20396;-74
2022/01/10 00:31:38;;;;;;;11.80;5.88;;;;;;;0.63;100.00;98205.13;4993150;28;20087;-73
2022/01/10 00:34:04;;;;;;;12.32;5.65;;;;;;;0.74;100.00;98220.00;4995358;28;20468;-74
2022/01/10 00:36:29;;;;;;;10.10;5.60;;;;;;;0.72;100.00;98218.50;4993522;28;20026;-74
2022/01/10 00:38:54;;;;;;;15.18;5.47;;;;;;;0.77;100.00;98232.16;4995711;28;20026;-74
2022/01/10 00:41:20;;;;;;;11.73;5.10;;;;;;;0.67;100.00;98210.97;4991316;28;20037;-73
2022/01/10 00:43:46;;;;;;;10.52;5.05;;;;;;;0.65;100.00;98207.59;4993628;28;20022;-74
2022/01/10 00:46:13;;;;;;;13.50;5.70;;;;;;;0.77;100.00;98233.00;4979867;28;20071;-73
2022/01/10 00:48:39;;;;;;;10.65;5.53;;;;;;;0.72;100.00;98229.97;4975683;28;20054;-74
2022/01/10 00:51:05;;;;;;;10.13;5.85;;;;;;;0.68;100.00;98230.41;4988584;28;20030;-74
2022/01/10 00:53:30;;;;;;;9.38;4.40;;;;;;;0.58;100.00;98218.06;4993512;28;20038;-73
2022/01/10 00:55:56;;;;;;;13.88;5.57;;;;;;;0.72;100.00;98234.47;4992521;28;20029;-73
2022/01/10 00:58:21;;;;;;;11.07;4.78;;;;;;;0.70;100.00;98239.09;4991091;28;20030;-73
2022/01/10 01:00:47;;;;;;;12.50;5.25;;;;;;;0.80;100.00;98245.16;4990011;28;20034;-74
2022/01/10 01:03:12;;;;;;;11.07;5.57;;;;;;;0.81;100.00;98252.16;4990483;28;20098;-74
2022/01/10 01:05:41;;;;;;;11.55;5.47;;;;;;;0.66;100.00;98235.91;4990826;28;20038;-74
2022/01/10 01:08:08;;;;;;;17.10;5.93;;;;;;;0.67;100.00;98250.88;4983745;28;20053;-74
2022/01/10 01:18:59;;;;;;;13.75;5.47;;;;;;;0.77;100.00;98256.13;4995500;28;20473;-74
2022/01/10 01:24:07;;;;;;;11.95;5.40;;;;;;;0.67;100.00;98266.03;4989164;28;20037;-73
2022/01/10 01:26:35;;;;;;;12.07;5.60;;;;;;;0.70;100.00;98281.69;4987071;28;20026;-73
2022/01/10 01:29:02;;;;;;;11.40;5.18;;;;;;;0.54;100.00;98267.25;4990251;28;20491;-74
2022/01/10 01:31:27;;;;;;;12.45;5.40;;;;;;;0.60;100.00;98277.31;4993473;28;20034;-74
2022/01/10 01:33:53;;;;;;;12.45;5.80;;;;;;;0.59;100.00;98288.94;4991573;28;20033;-74
2022/01/10 01:36:24;;;;;;;12.57;5.22;;;;;;;0.60;100.00;98279.09;5001873;28;20088;-74
2022/01/10 01:38:50;;;;;;;12.05;5.15;;;;;;;0.67;100.00;98300.63;5000153;28;20026;-74
2022/01/10 01:41:40;;;;;;;9.88;4.95;;;;;;;0.58;100.00;98291.75;4997269;28;20074;-74
2022/01/10 01:44:03;;;;;;;10.93;5.20;;;;;;;0.50;100.00;98284.53;5012078;28;20058;-74
2022/01/10 01:46:29;;;;;;;11.73;5.30;;;;;;;0.56;100.00;98288.41;5016012;28;20031;-74
2022/01/10 01:48:55;;;;;;;13.05;6.05;;;;;;;0.55;100.00;98303.53;5003573;28;20042;-74
2022/01/10 01:51:21;;;;;;;9.27;5.20;;;;;;;0.60;100.00;98295.94;4999077;28;20039;-73
2022/01/10 01:53:47;;;;;;;12.02;5.75;;;;;;;0.69;100.00;98314.63;4993412;28;20034;-74
2022/01/10 01:56:14;;;;;;;12.52;5.20;;;;;;;0.72;100.00;98319.66;4986681;28;20058;-74
2022/01/10 01:58:40;;;;;;;10.35;4.82;;;;;;;0.71;100.00;98324.16;4985552;28;20023;-73
2022/01/10 02:01:06;;;;;;;11.35;5.90;;;;;;;0.67;100.00;98300.63;4991759;28;20037;-73
2022/01/10 02:03:33;;;;;;;9.80;5.55;;;;;;;0.72;100.00;98324.97;4983949;28;20026;-74
2022/01/10 02:06:00;;;;;;;14.05;5.30;;;;;;;0.60;100.00;98309.25;4987601;28;20057;-73
2022/01/10 02:08:25;;;;;;;10.75;5.40;;;;;;;0.63;100.00;98313.44;4992182;28;20034;-73
2022/01/10 02:10:50;;;;;;;8.90;5.13;;;;;;;0.75;100.00;98322.00;4991722;28;20567;-74
2022/01/10 02:13:16;;;;;;;11.25;5.57;;;;;;;0.84;100.00;98321.94;4992129;28;20036;-74
2022/01/10 02:16:02;;;;;;;10.40;5.68;;;;;;;0.80;100.00;98338.38;4991284;28;20033;-73
2022/01/10 02:18:28;;;;;;;9.43;5.10;;;;;;;0.75;100.00;98322.00;4972952;28;20481;-73
2022/01/10 02:20:57;;;;;;;13.55;5.70;;;;;;;0.75;100.00;98325.50;4983541;28;20045;-74
2022/01/10 02:23:23;;;;;;;10.88;4.70;;;;;;;0.75;100.00;98325.50;4993013;28;20061;-73
2022/01/10 02:25:48;;;;;;;15.60;4.72;;;;;;;0.84;100.00;98345.06;4994646;28;20026;-73
2022/01/10 02:28:14;;;;;;;8.32;4.75;;;;;;;0.76;100.00;98347.63;4990137;28;20027;-74
2022/01/10 02:30:39;;;;;;;9.93;4.63;;;;;;;0.65;100.00;98333.59;4976868;28;20085;-73
2022/01/10 02:33:06;;;;;;;8.07;4.45;;;;;;;0.74;100.00;98355.78;4990285;28;20034;-74
2022/01/10 02:36:01;;;;;;;11.13;4.95;;;;;;;0.64;100.00;98345.22;4984081;28;20157;-73
2022/01/10 02:38:27;;;;;;;9.68;5.05;;;;;;;0.67;100.00;98364.53;4983361;28;20026;-73
2022/01/10 02:40:53;;;;;;;14.35;5.22;;;;;;;0.57;100.00;98362.75;4988377;28;20369;-73
2022/01/10 02:43:21;;;;;;;24.00;5.90;;;;;;;0.66;100.00;98366.38;4985697;28;20043;-73
2022/01/10 02:45:47;;;;;;;12.18;5.93;;;;;;;0.65;100.00;98373.53;4986083;28;20042;-74
2022/01/10 02:48:13;;;;;;;14.10;6.53;;;;;;;0.69;100.00;98370.56;4996043;28;20213;-74
2022/01/10 02:50:38;;;;;;;11.60;5.57;;;;;;;0.68;100.00;98374.19;4988029;28;20109;-73
2022/01/10 02:53:03;;;;;;;11.90;5.82;;;;;;;0.64;100.00;98379.81;4996124;28;20435;-73
2022/01/10 02:55:29;;;;;;;11.60;6.40;;;;;;;0.67;100.00;98388.50;4994169;28;20022;-73
2022/01/10 02:57:54;;;;;;;10.43;5.75;;;;;;;0.57;100.00;98365.44;4992367;28;20073;-73
2022/01/10 03:00:22;;;;;;;15.13;6.85;;;;;;;0.63;100.00;98391.47;4995086;28;20512;-74
2022/01/10 03:02:50;;;;;;;13.05;6.68;;;;;;;0.55;100.00;98375.41;4995907;28;20022;-73
2022/01/10 03:05:17;;;;;;;14.07;6.32;;;;;;;0.67;100.00;98386.66;4996112;28;20029;-73
2022/01/10 03:07:42;;;;;;;13.07;5.75;;;;;;;0.79;100.00;98409.44;4988966;28;20678;-73
2022/01/10 03:10:08;;;;;;;12.38;6.13;;;;;;;0.86;100.00;98406.97;4977828;28;20035;-74
2022/01/10 03:12:34;;;;;;;12.45;5.90;;;;;;;0.76;100.00;98400.88;4988361;28;20014;-73
2022/01/10 03:15:07;;;;;;;12.73;6.88;;;;;;;0.90;100.00;98416.34;4987113;28;20125;-73
2022/01/10 03:17:33;;;;;;;9.05;6.10;;;;;;;0.92;100.00;98416.19;4998780;28;20023;-72
2022/01/10 03:19:59;;;;;;;13.77;6.32;;;;;;;0.85;100.00;98415.97;4998259;28;20034;-73
2022/01/10 03:22:26;;;;;;;12.48;6.50;;;;;;;0.86;100.00;98420.28;4997088;28;20030;-72
2022/01/10 03:24:52;;;;;;;11.55;6.35;;;;;;;0.84;100.00;98419.63;4999241;28;20026;-73
2022/01/10 03:27:17;;;;;;;18.10;6.57;;;;;;;0.80;100.00;98412.91;4999773;28;20049;-73
2022/01/10 03:29:43;;;;;;;14.07;6.78;;;;;;;1.19;100.00;98433.94;5001066;28;20033;-72
2022/01/10 03:32:08;;;;;;;10.30;5.93;;;;;;;0.94;100.00;98420.38;4998795;28;20044;-72
2022/01/10 03:34:33;;;;;;;11.38;6.43;;;;;;;0.90;100.00;98429.66;4996754;28;20038;-72
2022/01/10 03:36:59;;;;;;;15.48;6.45;;;;;;;0.90;100.00;98432.34;4997998;28;20030;-73
2022/01/10 03:39:25;;;;;;;12.93;6.93;;;;;;;1.03;100.00;98451.44;4996606;28;20091;-72
2022/01/10 03:41:50;;;;;;;11.50;5.93;;;;;;;1.03;100.00;98451.44;5000253;28;20030;-72
2022/01/10 03:44:15;;;;;;;15.23;6.65;;;;;;;1.01;100.00;98458.75;4996187;28;20030;-73
2022/01/10 03:46:41;;;;;;;12.55;6.57;;;;;;;0.88;100.00;98435.13;4995704;28;20034;-73
2022/01/10 03:49:07;;;;;;;11.57;6.47;;;;;;;0.99;100.00;98458.03;4994686;28;20022;-73
2022/01/10 03:51:32;;;;;;;17.88;7.63;;;;;;;0.93;100.00;98445.34;4995904;28;20056;-73
2022/01/10 03:53:58;;;;;;;15.20;6.85;;;;;;;0.93;100.00;98445.34;4986538;28;20035;-73
2022/01/10 03:56:27;;;;;;;9.93;6.22;;;;;;;0.92;100.00;98462.31;4976715;28;20077;-73
2022/01/10 03:58:52;;;;;;;13.00;6.72;;;;;;;0.93;100.00;98460.50;4978064;28;20088;-73
2022/01/10 04:01:18;;;;;;;12.32;6.63;;;;;;;0.77;100.00;98454.00;4981937;28;20034;-73
2022/01/10 04:03:43;;;;;;;16.95;7.03;;;;;;;0.86;100.00;98465.56;4996008;28;20392;-71
2022/01/10 04:06:10;;;;;;;16.35;7.63;;;;;;;0.79;100.00;98461.84;4987867;28;20046;-72
2022/01/10 04:08:35;;;;;;;14.80;7.57;;;;;;;0.89;100.00;98465.25;4984335;28;20023;-73
2022/01/10 04:11:01;;;;;;;11.25;6.90;;;;;;;0.91;100.00;98479.28;4988180;28;20068;-75
2022/01/10 04:13:27;;;;;;;14.65;7.70;;;;;;;0.88;100.00;98476.91;4993656;28;20022;-73
2022/01/10 04:15:52;;;;;;;13.90;7.38;;;;;;;0.83;100.00;98473.88;4991099;28;20022;-75
2022/01/10 04:18:18;;;;;;;13.50;7.32;;;;;;;0.81;100.00;98474.03;4994798;28;20080;-72
2022/01/10 04:20:45;;;;;;;14.40;7.13;;;;;;;0.98;100.00;98490.19;4993193;28;20034;-71
2022/01/10 04:23:11;;;;;;;11.18;7.10;;;;;;;0.93;100.00;98482.63;4994211;28;20558;-73
2022/01/10 04:25:36;;;;;;;10.65;6.18;;;;;;;0.88;100.00;98467.09;4989971;28;20034;-72
2022/01/10 04:28:02;;;;;;;12.07;7.18;;;;;;;1.04;100.00;98493.06;4991922;28;20500;-71
2022/01/10 04:30:28;;;;;;;12.18;6.78;;;;;;;1.00;100.00;98494.38;5005283;28;20486;-74
2022/01/10 04:32:53;;;;;;;15.18;7.10;;;;;;;1.05;100.00;98494.75;5003628;28;20034;-72
2022/01/10 04:35:18;;;;;;;13.35;6.65;;;;;;;0.85;100.00;98466.56;4997671;28;20037;-72
2022/01/10 04:37:44;;;;;;;12.77;7.10;;;;;;;1.06;100.00;98496.41;4992290;28;20022;-73
2022/01/10 04:40:10;;;;;;;15.02;6.90;;;;;;;0.97;100.00;98489.34;4993617;28;20065;-73
2022/01/10 04:42:36;;;;;;;12.25;7.03;;;;;;;1.28;100.00;98516.47;4994967;28;20041;-72
2022/01/10 04:45:02;;;;;;;15.70;6.78;;;;;;;1.29;100.00;98519.97;4994370;28;20400;-73
2022/01/10 04:47:27;;;;;;;14.15;6.40;;;;;;;1.26;100.00;98504.28;4991010;28;20030;-74
2022/01/10 04:50:33;;;;;;;10.63;6.05;;;;;;;1.09;100.00;98514.75;5002822;28;20065;-76
2022/01/10 04:52:53;;;;;;;12.50;6.47;;;;;;;0.95;100.00;98520.63;4986999;28;20489;-73
2022/01/10 04:55:20;;;;;;;13.20;6.05;;;;;;;1.00;100.00;98544.16;4995497;28;20034;-74
2022/01/10 04:57:46;;;;;;;11.90;6.55;;;;;;;0.97;100.00;98537.28;4982675;28;20420;-71
2022/01/10 05:00:14;;;;;;;11.82;7.15;;;;;;;0.98;100.00;98540.78;4993716;28;20034;-74
2022/01/10 05:02:43;;;;;;;15.20;7.30;;;;;;;1.12;100.00;98550.94;4989378;28;20134;-73
2022/01/10 05:05:09;;;;;;;;;;;;;;;1.08;100.00;98562.88;4988346;28;20026;-71
2022/01/10 05:07:34;;;;;;;13.32;6.93;;;;;;;1.07;100.00;98570.03;4995597;28;19991;-70
2022/01/10 05:09:59;;;;;;;12.45;6.20;;;;;;;1.00;100.00;98552.97;4988837;28;20555;-70
2022/01/10 05:12:27;;;;;;;17.98;6.78;;;;;;;1.12;100.00;98582.06;4994173;28;20022;-71
2022/01/10 05:14:53;;;;;;;12.32;6.18;;;;;;;1.12;100.00;98588.22;4995936;28;20105;-71
2022/01/10 05:17:20;;;;;;;11.50;6.65;;;;;;;1.13;100.00;98573.06;4997525;28;20061;-72
2022/01/10 05:19:45;;;;;;;10.93;6.78;;;;;;;1.17;100.00;98595.78;4992869;28;20041;-71
2022/01/10 05:22:11;;;;;;;14.85;6.70;;;;;;;1.16;100.00;98594.94;4991909;28;20026;-70
2022/01/10 05:24:36;;;;;;;13.18;6.80;;;;;;;1.15;100.00;98597.75;4992740;28;20024;-71
2022/01/10 05:27:01;;;;;;;13.50;6.57;;;;;;;1.13;100.00;98605.91;4994586;28;20053;-75
2022/01/10 05:29:27;;;;;;;12.85;6.88;;;;;;;1.08;100.00;98584.19;4993663;28;20481;-73
2022/01/10 05:31:52;;;;;;;15.55;6.43;;;;;;;1.13;100.00;98607.72;4989175;28;20030;-76
2022/01/10 05:34:18;;;;;;;12.50;6.85;;;;;;;1.26;100.00;98609.06;4993788;28;20034;-72
2022/01/10 05:36:43;;;;;;;11.85;6.10;;;;;;;1.28;100.00;98612.44;4998748;28;20105;-73
2022/01/10 05:39:09;;;;;;;10.27;5.68;;;;;;;1.20;100.00;98606.13;4985623;28;20034;-70
2022/01/10 05:41:35;;;;;;;11.77;6.00;;;;;;;1.18;100.00;98602.78;5003317;28;20022;-73
2022/01/10 05:44:01;;;;;;;11.88;6.10;;;;;;;1.09;100.00;98599.19;4992524;28;20034;-76
2022/01/10 05:46:26;;;;;;;14.23;6.38;;;;;;;1.19;100.00;98604.47;5008756;28;20089;-76
2022/01/10 05:48:53;;;;;;;13.57;7.55;;;;;;;1.22;100.00;98620.16;5022228;28;20030;-73
2022/01/10 05:51:22;;;;;;;18.30;7.03;;;;;;;1.16;100.00;98624.25;5005215;28;20053;-73
2022/01/10 05:53:49;;;;;;;16.70;7.05;;;;;;;1.05;100.00;98619.13;5007247;28;20046;-74
2022/01/10 05:56:15;;;;;;;17.40;7.03;;;;;;;1.03;100.00;98624.59;5005601;28;20062;-75
2022/01/10 05:58:41;;;;;;;14.88;7.20;;;;;;;0.88;100.00;98612.75;4996792;28;20015;-74
2022/01/10 06:01:06;;;;;;;21.10;9.25;;;;;;;0.80;100.00;98629.44;5003173;28;20037;-72
2022/01/10 06:03:31;;;;;;;20.95;10.48;;;;;;;0.80;100.00;98647.25;5007579;28;20034;-75
2022/01/10 06:05:57;;;;;;;22.30;10.65;;;;;;;0.69;100.00;98640.28;5024217;28;20081;-72
2022/01/10 06:08:23;;;;;;;23.73;9.48;;;;;;;0.70;100.00;98651.78;5005077;28;20041;-74
2022/01/10 06:10:48;;;;;;;20.88;10.45;;;;;;;0.72;100.00;98660.47;4991019;28;20038;-74
2022/01/10 06:13:13;;;;;;;18.63;9.43;;;;;;;0.80;100.00;98677.38;4996521;28;20109;-73
2022/01/10 06:15:41;;;;;;;19.58;9.00;;;;;;;0.86;100.00;98679.50;4997217;28;20080;-73
2022/01/10 06:18:07;;;;;;;14.30;7.70;;;;;;;0.82;100.00;98672.75;4994161;28;20018;-73
2022/01/10 06:20:32;;;;;;;16.00;7.70;;;;;;;0.88;100.00;98682.81;4989842;28;20105;-73
2022/01/10 06:22:58;;;;;;;11.65;7.15;;;;;;;0.88;100.00;98685.47;4990021;28;20037;-74
2022/01/10 06:25:25;;;;;;;14.25;7.75;;;;;;;0.92;100.00;98694.03;4987438;28;20030;-73
2022/01/10 06:27:51;;;;;;;18.00;7.57;;;;;;;1.01;100.00;98710.97;4988958;28;20034;-74
2022/01/10 06:30:16;;;;;;;14.93;7.80;;;;;;;1.06;100.00;98725.53;4989909;28;20022;-73
2022/01/10 06:32:42;;;;;;;16.88;6.72;;;;;;;1.09;100.00;98733.22;4988862;28;20026;-73
2022/01/10 06:35:08;;;;;;;16.38;7.15;;;;;;;1.09;100.00;98730.56;4982179;28;20092;-73
2022/01/10 06:37:33;;;;;;;17.23;8.30;;;;;;;1.05;100.00;98720.38;4980342;28;20026;-73
2022/01/10 06:39:59;;;;;;;13.55;7.30;;;;;;;1.13;100.00;98728.47;4980101;28;20493;-71
2022/01/10 06:42:24;;;;;;;11.70;7.40;;;;;;;1.22;100.00;98742.75;4984631;28;20042;-70
2022/01/10 06:44:49;;;;;;;13.98;6.93;;;;;;;1.18;100.00;98730.69;4986834;28;20193;-73
2022/01/10 06:47:15;;;;;;;17.33;9.15;;;;;;;1.22;100.00;98748.91;4981106;28;20507;-72
2022/01/10 06:49:41;;;;;;;17.38;7.15;;;;;;;1.27;100.00;98751.13;4981900;28;20030;-71
2022/01/10 06:52:06;;;;;;;14.93;8.18;;;;;;;1.19;100.00;98756.34;4980257;28;20022;-71
2022/01/10 06:54:32;;;;;;;14.82;7.53;;;;;;;1.24;100.00;98762.09;4989263;28;20076;-71
2022/01/10 06:56:58;;;;;;;17.40;8.05;;;;;;;1.28;100.00;98768.78;4981360;28;20030;-72
2022/01/10 06:59:25;;;;;;;15.52;7.00;;;;;;;1.18;100.00;98749.31;4978540;28;20052;-71
2022/01/10 07:01:52;;;;;;;16.83;7.72;;;;;;;1.12;100.00;98747.25;4993548;28;20113;-70
2022/01/10 07:04:17;;;;;;;16.05;7.47;;;;;;;1.25;100.00;98775.25;4988235;28;20370;-71
2022/01/10 07:06:43;;;;;;;14.00;7.15;;;;;;;1.26;100.00;98787.63;4987615;28;20041;-74
2022/01/10 07:09:09;;;;;;;19.52;8.15;;;;;;;1.37;100.00;98794.59;4993499;28;20027;-74
2022/01/10 07:11:35;;;;;;;15.05;7.07;;;;;;;1.41;100.00;98803.97;4991741;28;20030;-73
2022/01/10 07:14:00;;;;;;;13.95;7.47;;;;;;;1.46;100.00;98809.69;4989732;28;20023;-72
2022/01/10 07:16:25;;;;;;;12.02;6.88;;;;;;;1.39;100.00;98808.63;4985818;28;20392;-78
2022/01/10 07:18:51;;;;;;;14.18;7.25;;;;;;;1.32;100.00;98802.19;4976164;28;20038;-78
2022/01/10 07:21:16;;;;;;;12.75;7.40;;;;;;;1.49;100.00;98830.75;4989858;28;20018;-78
2022/01/10 07:23:42;;;;;;;13.38;6.80;;;;;;;1.31;100.00;98800.53;5001415;28;20031;-74
2022/01/10 07:26:07;;;;;;;14.63;7.05;;;;;;;1.50;100.00;98832.44;5014798;28;20026;-74
2022/01/10 07:28:32;;;;;;;16.20;6.70;;;;;;;1.43;100.00;98834.00;5011462;28;20099;-78
2022/01/10 07:30:58;;;;;;;19.13;7.18;;;;;;;1.38;100.00;98828.25;5010501;28;20030;-76
2022/01/10 07:33:23;;;;;;;14.88;6.82;;;;;;;1.45;100.00;98836.53;5010511;28;20026;-69
2022/01/10 07:35:48;;;;;;;12.45;6.85;;;;;;;1.53;100.00;98850.81;5015003;28;20031;-71
2022/01/10 07:38:14;;;;;;;15.80;7.82;;;;;;;1.62;100.00;98872.25;5010168;28;20172;-70
2022/01/10 07:40:39;;;;;;;14.38;6.85;;;;;;;1.70;100.00;98864.34;5000467;28;20034;-74
2022/01/10 07:43:04;;;;;;;16.67;7.05;;;;;;;1.79;100.00;98873.34;4995513;28;20396;-71
2022/01/10 07:45:30;;;;;;;10.55;6.38;;;;;;;1.75;100.00;98886.09;4995244;28;20061;-74
2022/01/10 07:47:55;;;;;;;21.75;7.65;;;;;;;1.77;100.00;98886.81;4999333;28;20061;-73
2022/01/10 07:50:21;;;;;;;19.77;7.60;;;;;;;1.80;100.00;98897.19;4998859;28;20388;-75
2022/01/10 07:52:46;;;;;;;18.73;6.20;;;;;;;1.85;100.00;98886.91;4992681;28;20098;-72
2022/01/10 07:55:12;;;;;;;18.13;7.38;;;;;;;1.85;100.00;98897.59;4998010;28;20034;-70
2022/01/10 07:57:37;;;;;;;14.80;6.60;;;;;;;1.95;100.00;98902.91;5016291;28;20026;-69
2022/01/10 08:00:05;;;;;;;16.73;6.80;;;;;;;1.93;100.00;98891.53;5011742;28;20034;-75
2022/01/10 08:02:30;;;;;;;19.30;7.15;;;;;;;2.14;100.00;98915.31;5016215;28;20018;-76
2022/01/10 08:04:56;;;;;;;14.70;6.82;;;;;;;2.15;100.00;98901.00;5013429;28;20216;-75
2022/01/10 08:07:21;;;;;;;13.95;7.18;;;;;;;2.27;100.00;98904.31;5007179;28;20032;-76
2022/01/10 08:09:47;;;;;;;15.38;7.18;;;;;;;2.20;100.00;98896.03;5016699;28;20049;-76
2022/01/10 08:12:12;;;;;;;12.60;6.45;;;;;;;2.37;100.00;98921.94;5016938;28;20176;-76
2022/01/10 08:14:37;;;;;;;11.70;6.13;;;;;;;2.41;100.00;98918.00;5012283;28;20063;-77
2022/01/10 08:17:04;;;;;;;12.00;6.22;;;;;;;2.54;100.00;98925.69;5012479;28;20022;-76
2022/01/10 08:19:32;;;;;;;15.80;6.85;;;;;;;2.66;100.00;98922.78;5005409;28;20053;-75
2022/01/10 08:21:58;;;;;;;11.35;6.05;;;;;;;2.75;100.00;98937.91;5007411;28;20061;-76
2022/01/10 08:24:24;;;;;;;15.35;6.53;;;;;;;2.62;100.00;98927.59;5015872;28;20018;-79
2022/01/10 08:26:51;;;;;;;12.23;6.13;;;;;;;2.70;100.00;98925.03;5013864;28;20033;-76
2022/01/10 08:29:20;;;;;;;13.27;6.65;;;;;;;2.66;100.00;98938.81;4994895;28;20030;-75
2022/01/10 08:31:45;;;;;;;17.35;7.10;;;;;;;2.70;100.00;98949.06;4993754;28;20038;-73
2022/01/10 08:34:11;;;;;;;13.77;6.63;;;;;;;2.71;100.00;98957.91;4992000;28;20428;-68
2022/01/10 08:36:36;;;;;;;15.88;6.55;;;;;;;2.72;100.00;98963.09;4990617;28;20050;-72
2022/01/10 08:39:04;;;;;;;13.38;6.00;;;;;;;2.74;100.00;98966.44;4990090;28;20061;-72
2022/01/10 08:41:29;;;;;;;11.55;5.35;;;;;;;2.77;100.00;98966.16;4976872;28;20023;-71
2022/01/10 08:43:55;;;;;;;9.85;5.90;;;;;;;2.67;100.00;98959.19;4989546;28;20038;-73
2022/01/10 08:46:21;;;;;;;19.30;7.13;;;;;;;2.82;100.00;98987.09;4989183;28;20094;-73
2022/01/10 08:48:46;;;;;;;23.80;9.02;;;;;;;2.60;100.00;98957.13;4994787;28;20023;-74
2022/01/10 08:51:11;;;;;;;18.17;9.18;;;;;;;2.64;100.00;98976.34;4992915;28;20034;-73
2022/01/10 08:53:37;;;;;;;21.45;9.75;;;;;;;2.52;100.00;98956.19;4992605;28;20022;-74
2022/01/10 08:56:02;;;;;;;26.15;11.50;;;;;;;2.54;100.00;98975.56;4993695;28;20034;-71
2022/01/10 08:58:32;;;;;;;23.58;10.05;;;;;;;2.74;100.00;98992.34;4996130;28;20065;-72
2022/01/10 09:00:59;;;;;;;21.52;9.55;;;;;;;2.74;100.00;98979.81;4992071;28;20030;-71
2022/01/10 09:03:25;;;;;;;20.98;9.43;;;;;;;2.70;100.00;98967.75;4995372;28;20065;-72
2022/01/10 09:05:50;;;;;;;23.42;10.13;;;;;;;2.87;100.00;99003.50;4980484;28;20481;-71
2022/01/10 09:08:15;;;;;;;19.90;9.30;;;;;;;2.76;100.00;98993.03;4993570;28;20037;-72
2022/01/10 09:10:41;;;;;;;20.60;9.27;;;;;;;3.00;100.00;99014.69;4982359;28;20389;-69
2022/01/10 09:13:07;;;;;;;20.92;10.05;;;;;;;2.87;100.00;99016.03;4987511;28;20034;-72
2022/01/10 09:15:33;;;;;;;19.55;9.90;;;;;;;2.80;100.00;98997.94;4991709;28;20106;-72
2022/01/10 09:17:58;;;;;;;27.58;10.10;;;;;;;2.99;100.00;99029.03;4989416;28;20027;-71
2022/01/10 09:20:24;;;;;;;19.27;9.48;;;;;;;2.98;100.00;99043.38;4988108;28;20034;-70
2022/01/10 09:22:50;;;;;;;20.90;9.23;;;;;;;2.95;100.00;99038.34;4985335;28;20030;-73
2022/01/10 09:25:15;;;;;;;19.48;8.18;;;;;;;3.08;100.00;99032.66;4988235;28;20030;-70
2022/01/10 09:27:42;;;;;;;14.93;8.07;;;;;;;3.19;99.39;99056.50;4997309;28;20407;-76
2022/01/10 09:30:08;;;;;;;18.77;8.52;;;;;;;3.50;97.63;99053.47;4991334;28;20093;-71
2022/01/10 09:32:34;;;;;;;15.20;8.57;;;;;;;3.65;95.76;99046.59;4983071;28;20037;-75
2022/01/10 09:34:59;;;;;;;20.83;8.68;;;;;;;3.82;94.18;99039.53;5000517;28;20030;-75
2022/01/10 09:37:25;;;;;;;16.92;7.93;;;;;;;4.51;92.75;99053.94;4980820;28;20038;-74
2022/01/10 09:39:50;;;;;;;17.00;8.10;;;;;;;4.72;88.23;99050.06;4994360;28;20026;-74
2022/01/10 09:42:16;;;;;;;13.25;6.72;;;;;;;5.07;84.21;99059.75;4990033;28;20027;-74
2022/01/10 09:44:42;;;;;;;14.50;7.35;;;;;;;5.41;82.86;99067.72;4986373;28;20540;-75
2022/01/10 09:47:07;;;;;;;14.55;7.45;;;;;;;5.65;84.01;99071.47;4993311;28;20443;-73
2022/01/10 09:49:33;;;;;;;16.83;6.80;;;;;;;5.39;83.46;99076.94;4994771;28;20028;-74
2022/01/10 09:51:58;;;;;;;12.20;6.72;;;;;;;5.09;84.82;99071.16;4991959;28;20034;-73
2022/01/10 09:54:23;;;;;;;13.88;7.05;;;;;;;5.16;84.80;99074.00;4993489;28;20030;-73
2022/01/10 09:56:49;;;;;;;18.70;7.72;;;;;;;4.99;85.38;99082.00;4993709;28;20026;-72
2022/01/10 09:59:15;;;;;;;21.27;7.90;;;;;;;5.03;84.47;99086.06;4993298;28;20033;-71
2022/01/10 10:01:42;;;;;;;18.85;8.80;;;;;;;4.78;86.25;99095.81;4980952;28;20031;-71
2022/01/10 10:04:08;;;;;;;17.42;7.68;;;;;;;4.72;87.35;99088.41;4984492;28;20041;-72
2022/01/10 10:06:33;;;;;;;15.45;7.38;;;;;;;4.82;87.59;99075.72;4984106;28;20034;-77
2022/01/10 10:09:08;;;;;;;16.40;6.45;;;;;;;4.92;86.52;99094.34;4990623;28;20034;-71
2022/01/10 10:11:45;;;;;;;15.20;6.63;;;;;;;4.94;86.03;99102.25;4988396;28;20041;-74
2022/01/10 10:14:14;;;;;;;16.73;7.28;;;;;;;4.92;85.73;99101.56;4980478;28;20030;-69
2022/01/10 10:16:47;;;;;;;17.60;8.33;;;;;;;5.14;85.37;99110.91;4990714;28;20034;-74
2022/01/10 10:19:14;;;;;;;18.40;7.93;;;;;;;5.13;85.86;99103.84;4991891;28;20262;-71
2022/01/10 10:21:40;;;;;;;20.30;9.93;;;;;;;5.22;85.22;99103.72;4993556;28;20026;-75
2022/01/10 10:24:06;;;;;;;15.63;8.52;;;;;;;5.24;84.67;99103.56;4984932;28;20018;-71
2022/01/10 10:26:32;;;;;;;18.45;10.18;;;;;;;5.10;83.81;99104.16;4988316;28;20041;-72
2022/01/10 10:28:57;;;;;;;18.23;7.80;;;;;;;4.82;83.51;99105.22;4985596;28;20023;-74
2022/01/10 10:31:27;;;;;;;16.55;8.18;;;;;;;4.91;85.07;99113.31;4992744;28;20025;-75
2022/01/10 10:33:54;;;;;;;25.33;8.60;;;;;;;4.91;84.38;99122.19;4992751;28;20026;-75
2022/01/10 10:36:20;;;;;;;21.92;9.25;;;;;;;4.84;86.28;99121.97;4992374;28;20125;-72
2022/01/10 10:38:45;;;;;;;14.77;7.78;;;;;;;4.93;84.81;99090.69;4992474;28;20417;-74
2022/01/10 10:41:11;;;;;;;14.55;7.65;;;;;;;4.98;84.44;99114.34;4991824;28;20027;-74
2022/01/10 10:43:39;;;;;;;15.45;7.45;;;;;;;4.55;84.76;99127.66;4993298;28;20097;-74
2022/01/10 10:46:11;;;;;;;16.40;8.30;;;;;;;4.83;85.67;99128.34;4992161;28;20034;-73
2022/01/10 10:48:38;;;;;;;17.67;8.40;;;;;;;5.04;85.47;99119.06;4989195;28;20531;-74
2022/01/10 10:51:04;;;;;;;15.88;7.53;;;;;;;5.09;84.37;99115.91;4989899;28;20481;-75
2022/01/10 10:53:30;;;;;;;15.13;7.30;;;;;;;5.21;81.52;99120.84;4988879;28;20118;-74
2022/01/10 10:56:02;;;;;;;14.77;7.40;;;;;;;5.11;81.41;99119.25;4986427;28;20038;-73
2022/01/10 10:58:28;;;;;;;22.92;8.27;;;;;;;5.45;82.26;99133.50;4993011;28;20365;-74
2022/01/10 11:00:58;;;;;;;19.52;10.00;;;;;;;5.54;82.88;99128.16;4976641;28;20018;-74
2022/01/10 11:03:23;;;;;;;15.30;8.02;;;;;;;5.75;81.39;99138.44;4977462;28;20038;-74
2022/01/10 11:05:50;;;;;;;16.20;7.55;;;;;;;5.86;80.06;99138.13;4987645;28;20030;-74
2022/01/10 11:08:16;;;;;;;19.80;8.82;;;;;;;5.67;80.71;99136.56;4992388;28;20037;-72
2022/01/10 11:10:41;;;;;;;15.23;7.50;;;;;;;5.92;79.18;99149.06;4998890;28;20493;-74
2022/01/10 11:13:08;;;;;;;14.90;8.07;;;;;;;5.86;79.31;99147.00;4992954;28;20113;-75
2022/01/10 11:15:38;;;;;;;18.77;7.63;;;;;;;5.79;79.35;99134.41;4991842;28;20038;-73
2022/01/10 11:18:05;;;;;;;17.60;8.75;;;;;;;5.56;79.93;99163.72;4992173;28;20011;-72
2022/01/10 11:20:40;;;;;;;22.73;9.55;;;;;;;5.58;80.55;99142.91;4991643;28;20599;-75
2022/01/10 11:23:07;;;;;;;17.98;8.52;;;;;;;5.93;79.88;99164.19;4982788;28;20026;-73
2022/01/10 11:25:35;;;;;;;15.20;8.15;;;;;;;5.98;80.38;99176.28;4987903;28;20048;-74
2022/01/10 11:28:07;;;;;;;18.77;8.00;;;;;;;6.01;81.07;99171.41;4996693;28;20026;-73
2022/01/10 11:30:39;;;;;;;17.80;8.38;;;;;;;5.82;79.87;99171.69;4995605;28;20034;-73
2022/01/10 11:33:16;;;;;;;17.55;7.95;;;;;;;5.63;80.37;99156.69;4982676;28;20038;-73